createdAt,value
2017-08-01T00:01:48.436Z,9.07
2017-08-01T00:04:15.886Z,10.00
2017-08-01T00:06:43.472Z,9.57
2017-08-01T00:09:10.924Z,9.60
2017-08-01T00:11:38.480Z,13.10
2017-08-01T00:14:06.028Z,10.80
2017-08-01T00:16:33.469Z,10.60
2017-08-01T00:19:01.036Z,9.37
2017-08-01T00:21:28.476Z,8.10
2017-08-01T00:23:56.065Z,8.30
2017-08-01T00:26:23.609Z,6.60
2017-08-01T00:28:51.053Z,8.00
2017-08-01T00:31:18.520Z,7.90
2017-08-01T00:33:45.957Z,8.20
2017-08-01T00:36:13.445Z,8.80
2017-08-01T00:38:40.892Z,8.80
2017-08-01T00:41:08.343Z,13.20
2017-08-01T00:43:35.818Z,8.97
2017-08-01T00:46:03.277Z,8.87
2017-08-01T00:48:30.780Z,8.20
2017-08-01T00:50:58.246Z,9.20
2017-08-01T00:53:25.711Z,8.80
2017-08-01T00:55:53.135Z,12.90
2017-08-01T00:58:20.618Z,9.80
2017-08-01T01:00:48.069Z,10.97
2017-08-01T01:03:15.515Z,10.43
2017-08-01T01:05:43.019Z,9.93
2017-08-01T01:08:10.459Z,10.77
2017-08-01T01:10:37.900Z,9.43
2017-08-01T01:13:05.368Z,10.77
2017-08-01T01:15:32.972Z,14.17
2017-08-01T01:18:00.444Z,11.93
2017-08-01T01:20:27.897Z,13.57
2017-08-01T01:22:55.415Z,12.70
2017-08-01T01:25:22.889Z,15.43
2017-08-01T01:27:51.097Z,9.47
2017-08-01T01:30:18.575Z,10.97
2017-08-01T01:32:46.060Z,12.87
2017-08-01T01:35:13.506Z,13.77
2017-08-01T01:37:40.991Z,10.80
2017-08-01T01:40:08.528Z,13.40
2017-08-01T01:42:35.979Z,10.07
2017-08-01T01:45:03.462Z,12.40
2017-08-01T01:47:31.672Z,9.70
2017-08-01T01:49:59.159Z,11.87
2017-08-01T01:52:26.723Z,10.03
2017-08-01T01:54:54.179Z,12.70
2017-08-01T01:57:21.652Z,11.87
2017-08-01T01:59:49.091Z,14.30
2017-08-01T02:02:16.563Z,10.23
2017-08-01T02:04:44.008Z,11.37
2017-08-01T02:07:11.459Z,12.30
2017-08-01T02:09:39.018Z,10.03
2017-08-01T02:12:06.576Z,7.20
2017-08-01T02:14:34.016Z,8.13
2017-08-01T02:17:01.475Z,11.67
2017-08-01T02:19:28.939Z,9.70
2017-08-01T02:21:56.387Z,8.60
2017-08-01T02:24:23.863Z,9.07
2017-08-01T02:26:51.411Z,8.23
2017-08-01T02:29:18.863Z,6.00
2017-08-01T02:31:46.425Z,7.00
2017-08-01T02:34:13.868Z,7.70
2017-08-01T02:36:41.319Z,10.90
2017-08-01T02:39:08.789Z,17.83
2017-08-01T02:41:36.232Z,8.63
2017-08-01T02:44:03.671Z,11.10
2017-08-01T02:46:31.148Z,7.90
2017-08-01T02:48:58.591Z,13.70
2017-08-01T02:51:26.053Z,9.40
2017-08-01T02:53:53.539Z,9.20
2017-08-01T02:56:21.011Z,9.20
2017-08-01T02:58:48.463Z,9.13
2017-08-01T03:01:15.920Z,11.47
2017-08-01T03:03:43.455Z,9.07
2017-08-01T03:06:10.923Z,8.93
2017-08-01T03:08:38.367Z,9.43
2017-08-01T03:11:05.849Z,10.93
2017-08-01T03:13:33.316Z,9.77
2017-08-01T03:16:01.559Z,10.47
2017-08-01T03:18:29.008Z,8.73
2017-08-01T03:20:56.479Z,10.73
2017-08-01T03:23:23.927Z,9.90
2017-08-01T03:25:51.373Z,9.93
2017-08-01T03:28:18.832Z,9.90
2017-08-01T03:30:46.304Z,10.40
2017-08-01T03:33:13.755Z,14.50
2017-08-01T03:35:41.216Z,12.30
2017-08-01T03:38:08.697Z,10.00
2017-08-01T03:40:36.917Z,11.43
2017-08-01T03:43:04.380Z,9.07
2017-08-01T03:45:31.851Z,9.77
2017-08-01T03:47:59.299Z,11.10
2017-08-01T03:50:26.869Z,15.87
2017-08-01T03:52:54.425Z,10.00
2017-08-01T03:55:21.880Z,9.60
2017-08-01T03:57:49.352Z,12.87
2017-08-01T04:00:16.829Z,11.60
2017-08-01T04:02:45.037Z,10.93
2017-08-01T04:05:12.522Z,11.90
2017-08-01T04:07:40.082Z,14.07
2017-08-01T04:10:07.536Z,12.17
2017-08-01T04:12:35.007Z,9.87
2017-08-01T04:15:02.455Z,11.40
2017-08-01T04:17:29.947Z,15.60
2017-08-01T04:19:58.212Z,10.33
2017-08-01T04:22:25.761Z,11.53
2017-08-01T04:24:53.231Z,10.90
2017-08-01T04:27:21.443Z,9.50
2017-08-01T04:29:48.891Z,10.30
2017-08-01T04:32:16.391Z,9.67
2017-08-01T04:34:43.857Z,11.63
2017-08-01T04:37:11.303Z,11.70
2017-08-01T04:39:38.739Z,10.20
2017-08-01T04:42:06.308Z,10.90
2017-08-01T04:44:45.764Z,12.43
2017-08-01T04:47:13.216Z,10.63
2017-08-01T04:49:40.765Z,10.27
2017-08-01T04:52:08.239Z,10.10
2017-08-01T04:54:35.689Z,9.27
2017-08-01T04:57:03.123Z,9.40
2017-08-01T04:59:30.588Z,9.73
2017-08-01T05:01:58.055Z,9.87
2017-08-01T05:04:25.513Z,11.53
2017-08-01T05:06:52.951Z,9.77
2017-08-01T05:09:20.515Z,8.23
2017-08-01T05:11:48.067Z,7.07
2017-08-01T05:14:15.551Z,9.17
2017-08-01T05:16:43.800Z,7.80
2017-08-01T05:19:11.244Z,7.50
2017-08-01T05:21:38.711Z,7.70
2017-08-01T05:24:06.168Z,8.27
2017-08-01T05:26:33.597Z,7.30
2017-08-01T05:29:01.060Z,8.00
2017-08-01T05:31:28.649Z,8.70
2017-08-01T05:33:56.123Z,12.97
2017-08-01T05:36:24.344Z,11.20
2017-08-01T05:38:51.783Z,7.90
2017-08-01T05:41:19.295Z,8.43
2017-08-01T05:43:46.835Z,9.40
2017-08-01T05:46:14.319Z,7.60
2017-08-01T05:48:41.784Z,7.70
2017-08-01T05:51:09.220Z,11.53
2017-08-01T05:53:36.672Z,8.13
2017-08-01T05:56:04.196Z,7.00
2017-08-01T05:58:31.675Z,9.30
2017-08-01T06:00:59.143Z,7.57
2017-08-01T06:03:26.608Z,7.57
2017-08-01T06:05:54.091Z,8.43
2017-08-01T06:08:21.527Z,7.97
2017-08-01T06:10:49.773Z,8.00
2017-08-01T06:13:17.261Z,9.87
2017-08-01T06:15:45.480Z,9.30
2017-08-01T06:18:12.924Z,7.73
2017-08-01T06:20:40.386Z,6.97
2017-08-01T06:23:07.858Z,8.57
2017-08-01T06:25:35.303Z,10.43
2017-08-01T06:28:02.767Z,5.57
2017-08-01T06:30:30.245Z,6.93
2017-08-01T06:32:57.691Z,7.67
2017-08-01T06:35:25.264Z,7.43
2017-08-01T06:37:52.707Z,8.83
2017-08-01T06:40:20.181Z,10.30
2017-08-01T06:42:47.616Z,8.50
2017-08-01T06:45:15.092Z,8.20
2017-08-01T06:47:42.563Z,10.60
2017-08-01T06:50:10.007Z,8.10
2017-08-01T06:52:37.559Z,11.27
2017-08-01T06:55:05.123Z,12.97
2017-08-01T06:57:32.593Z,10.13
2017-08-01T07:00:00.123Z,15.10
2017-08-01T07:02:27.608Z,11.10
2017-08-01T07:04:55.041Z,8.63
2017-08-01T07:07:22.479Z,9.13
2017-08-01T07:09:50.048Z,8.33
2017-08-01T07:12:17.507Z,11.70
2017-08-01T07:14:44.980Z,8.57
2017-08-01T07:17:12.427Z,8.33
2017-08-01T07:19:39.891Z,5.83
2017-08-01T07:22:07.436Z,6.13
2017-08-01T07:24:34.896Z,8.07
2017-08-01T07:27:02.351Z,8.47
2017-08-01T07:29:29.878Z,7.73
2017-08-01T07:31:57.361Z,12.43
2017-08-01T07:34:24.817Z,7.23
2017-08-01T07:36:52.311Z,11.30
2017-08-01T07:39:20.566Z,9.90
2017-08-01T07:41:47.996Z,7.63
2017-08-01T07:44:15.463Z,8.60
2017-08-01T07:46:42.904Z,8.97
2017-08-01T07:49:10.370Z,9.63
2017-08-01T07:51:37.819Z,10.97
2017-08-01T07:54:05.388Z,14.00
2017-08-01T07:56:32.828Z,6.43
2017-08-01T07:59:00.310Z,7.80
2017-08-01T08:01:27.800Z,10.70
2017-08-01T08:03:56.019Z,9.33
2017-08-01T08:06:23.480Z,7.43
2017-08-01T08:08:50.996Z,7.27
2017-08-01T08:11:18.456Z,8.03
2017-08-01T08:13:45.981Z,7.83
2017-08-01T08:16:14.211Z,9.07
2017-08-01T08:18:41.683Z,7.60
2017-08-01T08:21:09.170Z,9.07
2017-08-01T08:23:37.384Z,8.80
2017-08-01T08:26:04.827Z,6.80
2017-08-01T08:28:32.301Z,6.43
2017-08-01T08:30:59.743Z,6.70
2017-08-01T08:33:27.236Z,6.80
2017-08-01T08:35:54.685Z,6.03
2017-08-01T08:38:22.151Z,6.33
2017-08-01T08:40:49.622Z,7.80
2017-08-01T08:43:17.060Z,6.40
2017-08-01T08:45:44.543Z,8.37
2017-08-01T08:48:11.992Z,8.80
2017-08-01T08:50:39.437Z,6.43
2017-08-01T08:53:06.910Z,7.63
2017-08-01T08:55:34.450Z,6.70
2017-08-01T08:58:01.936Z,8.63
2017-08-01T09:00:30.139Z,5.77
2017-08-01T09:02:57.635Z,6.27
2017-08-01T09:05:25.113Z,6.33
2017-08-01T09:07:52.564Z,8.77
2017-08-01T09:10:20.044Z,4.70
2017-08-01T09:12:48.252Z,6.03
2017-08-01T09:15:15.701Z,6.10
2017-08-01T09:17:43.167Z,5.93
2017-08-01T09:20:10.625Z,4.80
2017-08-01T09:22:38.107Z,5.73
2017-08-01T09:25:05.566Z,5.87
2017-08-01T09:27:33.019Z,4.30
2017-08-01T09:30:00.495Z,4.93
2017-08-01T09:32:28.041Z,4.87
2017-08-01T09:34:55.518Z,5.03
2017-08-01T09:37:23.777Z,6.50
2017-08-01T09:39:51.225Z,4.47
2017-08-01T09:42:18.709Z,4.33
2017-08-01T09:44:46.958Z,4.67
2017-08-01T09:47:14.431Z,4.83
2017-08-01T09:49:42.635Z,5.50
2017-08-01T09:52:10.139Z,4.00
2017-08-01T09:54:37.585Z,5.00
2017-08-01T09:57:05.040Z,5.10
2017-08-01T09:59:32.507Z,4.30
2017-08-01T10:01:59.944Z,4.57
2017-08-01T10:04:27.423Z,6.93
2017-08-01T10:06:54.880Z,3.13
2017-08-01T10:09:22.324Z,5.00
2017-08-01T10:11:49.789Z,4.60
2017-08-01T10:14:17.251Z,4.80
2017-08-01T10:16:44.733Z,4.00
2017-08-01T10:19:12.992Z,4.10
2017-08-01T10:21:40.447Z,3.37
2017-08-01T10:24:07.912Z,4.30
2017-08-01T10:26:36.129Z,6.97
2017-08-01T10:29:03.611Z,4.00
2017-08-01T10:31:31.073Z,4.23
2017-08-01T10:33:58.515Z,3.33
2017-08-01T10:36:26.082Z,5.43
2017-08-01T10:38:53.647Z,6.20
2017-08-01T10:41:21.106Z,5.20
2017-08-01T10:43:48.572Z,4.17
2017-08-01T10:46:16.015Z,6.73
2017-08-01T10:48:43.516Z,3.80
2017-08-01T10:51:10.962Z,5.70
2017-08-01T10:53:39.300Z,4.23
2017-08-01T10:56:06.764Z,3.90
2017-08-01T10:58:34.213Z,4.30
2017-08-01T11:01:01.687Z,5.57
2017-08-01T11:03:29.125Z,5.20
2017-08-01T11:05:56.594Z,4.80
2017-08-01T11:08:24.059Z,4.27
2017-08-01T11:10:51.591Z,5.63
2017-08-01T11:13:19.031Z,5.00
2017-08-01T11:15:46.480Z,5.93
2017-08-01T11:18:13.989Z,4.80
2017-08-01T11:20:41.428Z,4.20
2017-08-01T11:23:08.859Z,4.17
2017-08-01T11:25:36.332Z,7.03
2017-08-01T11:28:03.771Z,4.53
2017-08-01T11:30:31.256Z,3.80
2017-08-01T11:32:58.699Z,3.87
2017-08-01T11:35:26.153Z,5.10
2017-08-01T11:37:53.720Z,3.53
2017-08-01T11:40:21.173Z,3.83
2017-08-01T11:42:48.664Z,5.47
2017-08-01T11:45:16.899Z,5.37
2017-08-01T11:47:44.362Z,6.80
2017-08-01T11:50:11.915Z,3.67
2017-08-01T11:52:39.363Z,3.40
2017-08-01T11:55:06.835Z,5.97
2017-08-01T11:57:34.300Z,3.80
2017-08-01T12:00:01.739Z,3.20
2017-08-01T12:02:29.198Z,5.33
2017-08-01T12:04:56.656Z,3.70
2017-08-01T12:07:24.124Z,3.77
2017-08-01T12:09:51.568Z,4.00
2017-08-01T12:12:19.076Z,3.63
2017-08-01T12:14:46.523Z,5.40
2017-08-01T12:17:13.995Z,3.90
2017-08-01T12:19:41.515Z,7.40
2017-08-01T12:22:09.750Z,4.27
2017-08-01T12:24:37.220Z,5.00
2017-08-01T12:27:04.677Z,4.00
2017-08-01T12:29:32.243Z,4.97
2017-08-01T12:31:59.803Z,4.07
2017-08-01T12:34:27.276Z,7.67
2017-08-01T12:36:55.538Z,7.30
2017-08-01T12:39:23.013Z,6.87
2017-08-01T12:41:51.223Z,5.43
2017-08-01T12:44:18.725Z,5.70
2017-08-01T12:46:46.191Z,6.47
2017-08-01T12:49:14.403Z,3.60
2017-08-01T12:51:41.860Z,3.50
2017-08-01T12:54:09.394Z,3.33
2017-08-01T12:56:37.644Z,4.10
2017-08-01T12:59:05.088Z,3.53
2017-08-01T13:01:32.570Z,4.40
2017-08-01T13:04:00.023Z,4.53
2017-08-01T13:06:27.633Z,5.20
2017-08-01T13:08:55.135Z,6.80
2017-08-01T13:11:22.605Z,5.27
2017-08-01T13:13:50.841Z,5.10
2017-08-01T13:16:18.324Z,4.53
2017-08-01T13:18:45.859Z,6.57
2017-08-01T13:21:13.428Z,5.20
2017-08-01T13:23:40.897Z,3.67
2017-08-01T13:26:08.339Z,4.20
2017-08-01T13:28:35.816Z,8.57
2017-08-01T13:31:03.270Z,6.80
2017-08-01T13:33:31.528Z,4.20
2017-08-01T13:35:58.973Z,4.10
2017-08-01T13:38:26.431Z,5.10
2017-08-01T13:40:53.903Z,4.93
2017-08-01T13:43:21.448Z,4.67
2017-08-01T13:45:48.908Z,5.50
2017-08-01T13:48:16.357Z,6.40
2017-08-01T13:50:43.828Z,5.47
2017-08-01T13:53:11.292Z,4.57
2017-08-01T13:55:39.520Z,4.57
2017-08-01T13:58:07.028Z,6.63
2017-08-01T14:00:34.560Z,4.43
2017-08-01T14:03:02.036Z,5.30
2017-08-01T14:05:29.509Z,3.77
2017-08-01T14:07:57.758Z,5.10
2017-08-01T14:10:25.251Z,3.60
2017-08-01T14:12:52.691Z,4.07
2017-08-01T14:15:20.907Z,5.23
2017-08-01T14:17:48.399Z,4.83
2017-08-01T14:20:15.847Z,5.80
2017-08-01T14:22:43.368Z,4.10
2017-08-01T14:25:10.859Z,3.90
2017-08-01T14:27:38.439Z,5.87
2017-08-01T14:30:05.883Z,3.70
2017-08-01T14:32:33.340Z,4.57
2017-08-01T14:35:00.797Z,3.43
2017-08-01T14:37:28.249Z,4.40
2017-08-01T14:39:55.707Z,3.50
2017-08-01T14:42:23.193Z,7.93
2017-08-01T14:44:51.396Z,6.60
2017-08-01T14:47:18.860Z,8.60
2017-08-01T14:49:46.354Z,6.50
2017-08-01T14:52:13.833Z,9.13
2017-08-01T14:54:42.089Z,7.50
2017-08-01T14:57:09.532Z,6.23
2017-08-01T14:59:37.166Z,5.00
2017-08-01T15:02:04.612Z,4.17
2017-08-01T15:04:32.110Z,3.70
2017-08-01T15:06:59.608Z,3.60
2017-08-01T15:09:27.837Z,3.27
2017-08-01T15:11:55.304Z,4.60
2017-08-01T15:14:22.853Z,4.77
2017-08-01T15:16:50.336Z,4.20
2017-08-01T15:19:17.872Z,3.67
2017-08-01T15:21:45.321Z,4.20
2017-08-01T15:24:12.783Z,5.10
2017-08-01T15:26:40.348Z,4.23
2017-08-01T15:29:07.804Z,5.40
2017-08-01T15:31:35.302Z,7.03
2017-08-01T15:34:02.762Z,5.27
2017-08-01T15:36:30.245Z,6.10
2017-08-01T15:38:57.739Z,5.87
2017-08-01T15:41:25.191Z,5.30
2017-08-01T15:43:52.744Z,5.27
2017-08-01T15:46:20.203Z,8.07
2017-08-01T15:48:47.775Z,6.20
2017-08-01T15:51:16.024Z,5.13
2017-08-01T15:53:43.475Z,7.03
2017-08-01T15:56:10.975Z,5.67
2017-08-01T15:58:38.416Z,6.87
2017-08-01T16:01:05.943Z,5.80
2017-08-01T16:03:33.459Z,5.57
2017-08-01T16:06:01.660Z,5.50
2017-08-01T16:08:29.167Z,5.20
2017-08-01T16:10:57.377Z,8.53
2017-08-01T16:13:24.888Z,5.13
2017-08-01T16:15:52.368Z,5.37
2017-08-01T16:18:19.895Z,4.77
2017-08-01T16:20:47.369Z,4.60
2017-08-01T16:23:15.619Z,5.13
2017-08-01T16:25:43.070Z,6.20
2017-08-01T16:28:10.552Z,5.30
2017-08-01T16:30:37.976Z,5.50
2017-08-01T16:33:05.452Z,7.80
2017-08-01T16:35:32.915Z,4.80
2017-08-01T16:38:00.410Z,4.60
2017-08-01T16:40:27.868Z,4.47
2017-08-01T16:42:55.300Z,5.43
2017-08-01T16:45:23.532Z,6.67
2017-08-01T16:47:50.984Z,4.17
2017-08-01T16:50:18.459Z,4.60
2017-08-01T16:52:45.931Z,5.80
2017-08-01T16:55:14.177Z,7.23
2017-08-01T16:57:41.632Z,4.70
2017-08-01T17:00:09.089Z,5.20
2017-08-01T17:02:36.575Z,4.67
2017-08-01T17:05:04.786Z,6.73
2017-08-01T17:07:32.286Z,5.27
2017-08-01T17:09:59.741Z,5.40
2017-08-01T17:12:27.192Z,6.63
2017-08-01T17:14:54.672Z,4.37
2017-08-01T17:17:22.113Z,5.87
2017-08-01T17:19:49.595Z,4.60
2017-08-01T17:22:17.815Z,4.50
2017-08-01T17:24:45.267Z,5.47
2017-08-01T17:27:12.746Z,4.20
2017-08-01T17:29:40.191Z,5.10
2017-08-01T17:32:07.691Z,5.70
2017-08-01T17:34:35.973Z,6.73
2017-08-01T17:37:04.191Z,13.57
2017-08-01T17:39:31.776Z,8.50
2017-08-01T17:41:59.243Z,5.83
2017-08-01T17:44:26.709Z,7.53
2017-08-01T17:46:54.964Z,4.47
2017-08-01T17:49:22.439Z,7.17
2017-08-01T17:51:50.664Z,8.93
2017-08-01T17:54:18.156Z,14.57
2017-08-01T17:56:45.591Z,8.03
2017-08-01T17:59:13.081Z,9.97
2017-08-01T18:01:41.332Z,14.27
2017-08-01T18:04:08.785Z,6.60
2017-08-01T18:06:36.282Z,5.30
2017-08-01T18:09:04.498Z,6.90
2017-08-01T18:11:31.964Z,3.97
2017-08-01T18:13:59.435Z,5.93
2017-08-01T18:16:26.932Z,8.10
2017-08-01T18:18:54.476Z,5.70
2017-08-01T18:21:22.804Z,6.13
2017-08-01T18:23:50.282Z,7.50
2017-08-01T18:26:17.836Z,7.80
2017-08-01T18:28:45.369Z,6.77
2017-08-01T18:31:12.893Z,8.17
2017-08-01T18:33:41.273Z,7.47
2017-08-01T18:36:09.123Z,7.37
2017-08-01T18:38:36.931Z,7.93
2017-08-01T18:41:04.589Z,6.70
2017-08-01T18:43:32.452Z,7.23
2017-08-01T18:46:00.130Z,9.90
2017-08-01T18:48:27.734Z,7.30
2017-08-01T18:50:56.358Z,9.20
2017-08-01T18:53:24.223Z,10.60
2017-08-01T18:55:52.089Z,10.00
2017-08-01T18:58:19.957Z,7.80
2017-08-01T19:00:48.640Z,12.00
2017-08-01T19:03:16.720Z,11.97
2017-08-01T19:05:44.678Z,11.40
2017-08-01T19:08:12.544Z,6.83
2017-08-01T19:10:40.426Z,8.47
2017-08-01T19:13:08.380Z,7.60
2017-08-01T19:15:36.243Z,9.90
2017-08-01T19:18:04.221Z,9.47
2017-08-01T19:20:32.077Z,8.53
2017-08-01T19:22:59.943Z,9.93
2017-08-01T19:25:27.894Z,8.33
2017-08-01T19:27:55.779Z,11.00
2017-08-01T19:30:23.644Z,8.73
2017-08-01T19:32:51.517Z,12.40
2017-08-01T19:35:19.373Z,11.67
2017-08-01T19:37:47.238Z,10.17
2017-08-01T19:40:15.109Z,10.20
2017-08-01T19:42:42.972Z,10.43
2017-08-01T19:45:11.050Z,12.40
2017-08-01T19:47:38.949Z,9.97
2017-08-01T19:50:06.775Z,11.17
2017-08-01T19:52:34.740Z,11.03
2017-08-01T19:55:02.709Z,10.30
2017-08-01T19:57:30.784Z,9.80
2017-08-01T19:59:58.649Z,9.37
2017-08-01T20:02:26.610Z,10.87
2017-08-01T20:04:54.477Z,11.97
2017-08-01T20:07:22.348Z,9.60
2017-08-01T20:09:50.208Z,9.67
2017-08-01T20:12:18.073Z,10.83
2017-08-01T20:14:45.946Z,11.47
2017-08-01T20:17:13.909Z,11.43
2017-08-01T20:19:41.773Z,12.30
2017-08-01T20:22:09.348Z,12.80
2017-08-01T20:24:37.106Z,12.83
2017-08-01T20:27:04.959Z,12.77
2017-08-01T20:29:32.447Z,10.23
2017-08-01T20:31:59.935Z,13.30
2017-08-01T20:34:28.221Z,13.37
2017-08-01T20:36:56.453Z,13.43
2017-08-01T20:39:23.920Z,14.00
2017-08-01T20:41:51.401Z,15.20
2017-08-01T20:44:19.660Z,11.20
2017-08-01T20:46:47.095Z,12.90
2017-08-01T20:49:14.576Z,12.43
2017-08-01T20:51:42.051Z,13.63
2017-08-01T20:54:09.512Z,12.57
2017-08-01T20:56:37.015Z,12.23
2017-08-01T20:59:04.522Z,11.90
2017-08-01T21:01:32.737Z,11.40
2017-08-01T21:04:00.216Z,10.20
2017-08-01T21:06:27.785Z,8.43
2017-08-01T21:08:55.360Z,8.03
2017-08-01T21:11:23.584Z,11.47
2017-08-01T21:13:51.048Z,10.37
2017-08-01T21:16:18.615Z,7.60
2017-08-01T21:18:46.145Z,8.90
2017-08-01T21:21:13.592Z,9.03
2017-08-01T21:23:41.043Z,10.03
2017-08-01T21:26:08.524Z,10.80
2017-08-01T21:28:35.972Z,9.33
2017-08-01T21:31:03.572Z,10.17
2017-08-01T21:33:31.124Z,9.23
2017-08-01T21:35:58.588Z,12.27
2017-08-01T21:38:26.631Z,13.73
2017-08-01T21:40:54.088Z,14.10
2017-08-01T21:43:21.620Z,13.63
2017-08-01T21:45:49.085Z,13.17
2017-08-01T21:48:16.541Z,13.40
2017-08-01T21:50:44.007Z,13.50
2017-08-01T21:53:11.497Z,12.30
2017-08-01T21:55:38.977Z,10.93
2017-08-01T21:58:07.196Z,10.97
2017-08-01T22:00:34.939Z,12.20
2017-08-01T22:03:02.431Z,12.03
2017-08-01T22:05:29.879Z,10.77
2017-08-01T22:07:57.344Z,12.50
2017-08-01T22:10:24.829Z,13.23
2017-08-01T22:12:53.049Z,14.10
2017-08-01T22:15:20.562Z,12.20
2017-08-01T22:17:48.095Z,12.87
2017-08-01T22:20:15.579Z,12.07
2017-08-01T22:22:43.068Z,12.80
2017-08-01T22:25:10.529Z,12.40
2017-08-01T22:27:38.019Z,12.53
2017-08-01T22:30:05.508Z,13.10
2017-08-01T22:32:33.724Z,14.27
2017-08-01T22:35:01.309Z,12.17
2017-08-01T22:37:28.785Z,9.70
2017-08-01T22:39:57.018Z,11.60
2017-08-01T22:42:24.507Z,10.40
2017-08-01T22:44:51.961Z,10.40
2017-08-01T22:47:19.415Z,11.30
2017-08-01T22:49:46.971Z,10.43
2017-08-01T22:52:14.424Z,9.43
2017-08-01T22:54:41.941Z,10.97
2017-08-01T22:57:09.384Z,9.33
2017-08-01T22:59:36.884Z,8.70
2017-08-01T23:02:04.365Z,13.47
2017-08-01T23:04:31.837Z,15.40
2017-08-01T23:07:00.081Z,11.30
2017-08-01T23:09:27.527Z,12.83
2017-08-01T23:11:55.000Z,12.73
2017-08-01T23:14:22.455Z,15.83
2017-08-01T23:16:49.934Z,11.90
2017-08-01T23:19:18.170Z,14.70
2017-08-01T23:21:45.635Z,14.50
2017-08-01T23:24:13.200Z,14.00
2017-08-01T23:26:40.659Z,14.60
2017-08-01T23:29:08.109Z,11.27
2017-08-01T23:31:35.577Z,10.43
2017-08-01T23:34:03.019Z,10.23
2017-08-01T23:36:30.500Z,11.50
2017-08-01T23:38:58.748Z,10.40
2017-08-01T23:41:26.201Z,11.70
2017-08-01T23:43:53.672Z,11.03
2017-08-01T23:46:21.129Z,11.63
2017-08-01T23:48:48.677Z,10.27
2017-08-01T23:51:16.145Z,10.43
2017-08-01T23:53:43.605Z,10.90
2017-08-01T23:56:11.085Z,9.37
2017-08-01T23:58:38.543Z,10.63
